Time;durP1;ratioP1;P1;durP2;ratioP2;P2;SDS_P1;SDS_P2;PMS_P1;PMS_P2;Temp;Humidity;BMP_temperature;BMP_pressure;BME280_temperature;BME280_humidity;BME280_pressure;Samples;Min_cycle;Max_cycle;Signal;HPM_P1;HPM_P2
2022/12/03 00:00:38;;;;;;;13.45;5.82;;;;;;;;;;5000523;28;20029;-65
2022/12/03 00:03:04;;;;;;;9.63;4.43;;;;;;;;;;4992124;28;20033;-66
2022/12/03 00:05:30;;;;;;;8.65;3.80;;;;;;;;;;5000238;28;20511;-65
2022/12/03 00:07:56;;;;;;;10.68;4.60;;;;;;;;;;4995502;28;20464;-65
2022/12/03 00:10:23;;;;;;;14.02;6.75;;;;;;;;;;5000362;28;20427;-66
2022/12/03 00:12:49;;;;;;;9.35;4.20;;;;;;;;;;4994047;28;20064;-65
2022/12/03 00:15:15;;;;;;;10.20;4.13;;;;;;;;;;4996018;28;20029;-65
2022/12/03 00:17:41;;;;;;;14.25;6.32;;;;;;;;;;4995275;28;20047;-66
2022/12/03 00:20:08;;;;;;;12.52;5.15;;;;;;;;;;4991318;28;20162;-65
2022/12/03 00:22:34;;;;;;;9.82;4.25;;;;;;;;;;4995501;28;20811;-65
2022/12/03 00:25:00;;;;;;;10.02;3.97;;;;;;;;;;4993033;28;20724;-66
2022/12/03 00:27:26;;;;;;;8.68;3.28;;;;;;;;;;4998612;28;20044;-64
2022/12/03 00:29:52;;;;;;;9.70;3.40;;;;;;;;;;4992088;28;20442;-66
2022/12/03 00:32:18;;;;;;;11.23;4.25;;;;;;;;;;4999691;28;20282;-66
2022/12/03 00:34:45;;;;;;;9.00;3.45;;;;;;;;;;4997752;28;20033;-65
2022/12/03 00:37:12;;;;;;;8.20;3.13;;;;;;;;;;4997141;28;20130;-65
2022/12/03 00:39:38;;;;;;;9.10;3.42;;;;;;;;;;4997455;28;20039;-65
2022/12/03 00:42:04;;;;;;;10.65;3.13;;;;;;;;;;4993732;28;20033;-65
2022/12/03 00:44:30;;;;;;;8.93;3.03;;;;;;;;;;4995454;28;20107;-65
2022/12/03 00:46:57;;;;;;;8.65;3.45;;;;;;;;;;5007294;28;20028;-67
2022/12/03 00:49:23;;;;;;;8.20;2.70;;;;;;;;;;4995253;28;20045;-65
2022/12/03 00:51:49;;;;;;;7.10;3.15;;;;;;;;;;4994439;28;20111;-66
2022/12/03 00:54:15;;;;;;;8.43;2.95;;;;;;;;;;4996734;28;20640;-66
2022/12/03 00:56:41;;;;;;;12.85;3.30;;;;;;;;;;4994766;28;20039;-65
2022/12/03 00:59:11;;;;;;;9.05;3.03;;;;;;;;;;4994237;28;20305;-65
2022/12/03 01:01:37;;;;;;;8.05;2.65;;;;;;;;;;4998947;28;20741;-65
2022/12/03 01:04:03;;;;;;;8.88;2.80;;;;;;;;;;4992565;28;20034;-64
2022/12/03 01:06:29;;;;;;;;;;;;;;;;;;4998187;28;20021;-66
2022/12/03 01:08:55;;;;;;;10.18;3.40;;;;;;;;;;4992813;28;20449;-66
2022/12/03 01:11:37;;;;;;;8.20;3.10;;;;;;;;;;4994251;28;20033;-65
2022/12/03 01:14:04;;;;;;;10.40;3.60;;;;;;;;;;5007526;28;20539;-65
2022/12/03 01:16:30;;;;;;;10.30;3.45;;;;;;;;;;5008730;28;20526;-66
2022/12/03 01:18:56;;;;;;;8.38;3.10;;;;;;;;;;4993967;28;20060;-66
2022/12/03 01:21:22;;;;;;;13.15;3.40;;;;;;;;;;4992872;28;20535;-66
2022/12/03 01:23:48;;;;;;;10.15;3.17;;;;;;;;;;4990835;28;20545;-65
2022/12/03 01:26:14;;;;;;;12.35;3.70;;;;;;;;;;4993031;28;20067;-66
2022/12/03 01:28:40;;;;;;;8.68;2.80;;;;;;;;;;4995507;28;20603;-66
2022/12/03 01:33:52;;;;;;;9.27;3.05;;;;;;;;;;4989027;28;20726;-65
2022/12/03 01:36:18;;;;;;;11.82;2.90;;;;;;;;;;4994654;28;21406;-66
2022/12/03 01:38:44;;;;;;;8.95;2.67;;;;;;;;;;4996963;28;20546;-66
2022/12/03 01:41:10;;;;;;;9.93;2.78;;;;;;;;;;4994840;28;20029;-66
2022/12/03 01:43:36;;;;;;;7.78;2.67;;;;;;;;;;4997828;28;20113;-66
2022/12/03 01:46:03;;;;;;;10.32;2.90;;;;;;;;;;4990652;28;20073;-65
2022/12/03 01:48:29;;;;;;;;;;;;;;;;;;4999565;28;20130;-65
2022/12/03 01:50:55;;;;;;;9.45;2.60;;;;;;;;;;4992627;28;19913;-65
2022/12/03 01:53:21;;;;;;;7.38;2.55;;;;;;;;;;4997889;28;21230;-67
2022/12/03 01:55:47;;;;;;;9.93;2.38;;;;;;;;;;4992769;28;20041;-65
2022/12/03 01:58:14;;;;;;;5.95;1.67;;;;;;;;;;5010047;28;20067;-64
2022/12/03 02:00:40;;;;;;;7.57;1.98;;;;;;;;;;4999911;28;20536;-66
2022/12/03 02:03:33;;;;;;;7.10;2.10;;;;;;;;;;4993577;28;20342;-65
2022/12/03 02:05:59;;;;;;;5.97;1.90;;;;;;;;;;4995892;28;20649;-64
2022/12/03 02:08:28;;;;;;;6.45;1.90;;;;;;;;;;5000855;28;20048;-63
2022/12/03 02:10:54;;;;;;;6.68;2.60;;;;;;;;;;4999184;28;20029;-64
2022/12/03 02:13:20;;;;;;;6.68;2.40;;;;;;;;;;5000735;28;20468;-64
2022/12/03 02:15:47;;;;;;;10.82;4.35;;;;;;;;;;5000272;28;20906;-64
2022/12/03 02:18:13;;;;;;;6.88;2.75;;;;;;;;;;4995893;28;20076;-64
2022/12/03 02:20:49;;;;;;;8.77;3.35;;;;;;;;;;4998015;28;20021;-64
2022/12/03 02:23:27;;;;;;;9.52;4.03;;;;;;;;;;5000020;28;20087;-64
2022/12/03 02:25:53;;;;;;;10.65;3.45;;;;;;;;;;4995806;28;20052;-65
2022/12/03 02:28:19;;;;;;;7.60;2.20;;;;;;;;;;5000592;28;20056;-64
2022/12/03 02:30:46;;;;;;;7.85;1.95;;;;;;;;;;5000146;28;20037;-65
2022/12/03 02:33:12;;;;;;;;;;;;;;;;;;4997933;28;20029;-64
2022/12/03 02:35:38;;;;;;;8.93;3.17;;;;;;;;;;5000428;28;20398;-64
2022/12/03 02:38:04;;;;;;;;;;;;;;;;;;4995230;28;20535;-64
2022/12/03 02:40:32;;;;;;;4.70;1.60;;;;;;;;;;4998382;28;20396;-64
2022/12/03 02:42:59;;;;;;;7.88;1.73;;;;;;;;;;4996037;28;20076;-64
2022/12/03 02:45:28;;;;;;;5.35;1.50;;;;;;;;;;4999953;28;20484;-64
2022/12/03 02:47:58;;;;;;;7.00;1.70;;;;;;;;;;4992074;28;20040;-63
2022/12/03 02:50:27;;;;;;;6.45;1.80;;;;;;;;;;5002111;28;20186;-63
2022/12/03 02:52:54;;;;;;;9.23;1.88;;;;;;;;;;4997358;28;20037;-64
2022/12/03 02:55:21;;;;;;;5.70;2.28;;;;;;;;;;4997231;28;20507;-64
2022/12/03 02:57:48;;;;;;;7.93;1.85;;;;;;;;;;4998983;28;20049;-64
2022/12/03 03:00:14;;;;;;;5.60;2.08;;;;;;;;;;4999594;28;20025;-65
2022/12/03 03:02:41;;;;;;;6.55;1.85;;;;;;;;;;4999471;28;20109;-64
2022/12/03 03:05:08;;;;;;;5.15;1.70;;;;;;;;;;5008890;28;21023;-64
2022/12/03 03:07:35;;;;;;;7.65;2.00;;;;;;;;;;4996946;28;20835;-64
2022/12/03 03:10:02;;;;;;;6.28;1.95;;;;;;;;;;4996601;28;20037;-63
2022/12/03 03:12:28;;;;;;;5.25;1.70;;;;;;;;;;4994060;28;20083;-63
2022/12/03 03:14:54;;;;;;;5.88;1.80;;;;;;;;;;4991851;28;20033;-64
2022/12/03 03:17:20;;;;;;;6.97;1.75;;;;;;;;;;4999622;28;20479;-64
2022/12/03 03:19:46;;;;;;;6.43;1.88;;;;;;;;;;4997936;28;20029;-64
2022/12/03 03:22:12;;;;;;;6.35;1.98;;;;;;;;;;5001129;28;20489;-64
2022/12/03 03:24:39;;;;;;;6.30;2.35;;;;;;;;;;5000162;28;20022;-64
2022/12/03 03:27:05;;;;;;;8.23;2.47;;;;;;;;;;4995648;28;20068;-64
2022/12/03 03:29:32;;;;;;;6.63;2.40;;;;;;;;;;4997130;28;20128;-64
2022/12/03 03:31:58;;;;;;;8.35;2.58;;;;;;;;;;4993968;28;20056;-64
2022/12/03 03:34:24;;;;;;;8.07;2.45;;;;;;;;;;4996480;28;20128;-64
2022/12/03 03:36:53;;;;;;;7.13;2.42;;;;;;;;;;4995449;28;20488;-64
2022/12/03 03:39:19;;;;;;;8.40;2.33;;;;;;;;;;4999753;28;20549;-66
2022/12/03 03:41:46;;;;;;;7.25;1.95;;;;;;;;;;4998379;28;20444;-66
2022/12/03 03:44:12;;;;;;;;;;;;;;;;;;5000192;28;21278;-64
2022/12/03 03:46:39;;;;;;;6.75;2.30;;;;;;;;;;4998131;28;20008;-64
2022/12/03 03:49:05;;;;;;;10.55;2.60;;;;;;;;;;4993125;28;20044;-64
2022/12/03 03:51:31;;;;;;;;;;;;;;;;;;5002776;28;20109;-63
2022/12/03 03:53:57;;;;;;;8.68;2.55;;;;;;;;;;5010670;28;19994;-65
2022/12/03 03:56:24;;;;;;;9.43;2.90;;;;;;;;;;5000421;28;20424;-64
2022/12/03 03:58:50;;;;;;;;;;;;;;;;;;4996649;28;20071;-64
2022/12/03 04:01:16;;;;;;;9.05;3.10;;;;;;;;;;5010561;28;19921;-64
2022/12/03 04:03:42;;;;;;;;;;;;;;;;;;4997777;28;20055;-64
2022/12/03 04:06:09;;;;;;;7.63;2.65;;;;;;;;;;4995350;28;19959;-64
2022/12/03 04:08:35;;;;;;;9.50;3.00;;;;;;;;;;4997988;28;20518;-64
2022/12/03 04:13:47;;;;;;;7.85;2.78;;;;;;;;;;4998767;28;20041;-64
2022/12/03 04:16:13;;;;;;;8.20;2.85;;;;;;;;;;4994764;28;20112;-65
2022/12/03 04:18:42;;;;;;;10.30;3.15;;;;;;;;;;4997522;28;20480;-64
2022/12/03 04:23:53;;;;;;;9.43;3.13;;;;;;;;;;4995276;28;20059;-64
2022/12/03 04:29:07;;;;;;;7.25;2.85;;;;;;;;;;4994910;28;20040;-64
2022/12/03 04:37:04;;;;;;;8.43;2.70;;;;;;;;;;4995738;28;20124;-65
2022/12/03 04:39:30;;;;;;;;;;;;;;;;;;4998776;28;20577;-65
2022/12/03 04:41:56;;;;;;;7.65;2.53;;;;;;;;;;4994012;28;20140;-64
2022/12/03 04:44:37;;;;;;;8.43;2.50;;;;;;;;;;4996632;28;20119;-66
2022/12/03 04:47:08;;;;;;;8.57;2.53;;;;;;;;;;4993702;28;20033;-64
2022/12/03 04:49:34;;;;;;;8.48;2.63;;;;;;;;;;4996993;28;20021;-64
2022/12/03 04:52:00;;;;;;;;;;;;;;;;;;4995096;28;20029;-64
2022/12/03 04:54:27;;;;;;;8.95;2.42;;;;;;;;;;4997893;28;19920;-66
2022/12/03 04:56:53;;;;;;;8.90;2.70;;;;;;;;;;4995629;28;20084;-66
2022/12/03 04:59:19;;;;;;;9.88;2.70;;;;;;;;;;4997768;28;20629;-64
2022/12/03 05:01:46;;;;;;;13.30;3.17;;;;;;;;;;4998903;28;20032;-66
2022/12/03 05:04:13;;;;;;;6.95;2.30;;;;;;;;;;4997004;28;20010;-66
2022/12/03 05:06:40;;;;;;;8.95;2.53;;;;;;;;;;4997455;28;20358;-63
2022/12/03 05:09:08;;;;;;;9.15;2.50;;;;;;;;;;4994578;28;20649;-63
2022/12/03 05:11:34;;;;;;;11.80;2.90;;;;;;;;;;4999357;28;20148;-66
2022/12/03 05:14:00;;;;;;;8.35;2.60;;;;;;;;;;4992685;28;20036;-66
2022/12/03 05:16:26;;;;;;;7.15;2.55;;;;;;;;;;4997513;28;20052;-66
2022/12/03 05:18:52;;;;;;;8.05;2.45;;;;;;;;;;4993874;28;20451;-66
2022/12/03 05:21:18;;;;;;;8.77;2.90;;;;;;;;;;4999420;28;20742;-67
2022/12/03 05:23:45;;;;;;;8.60;2.90;;;;;;;;;;4994170;28;20419;-66
2022/12/03 05:26:11;;;;;;;8.75;3.00;;;;;;;;;;5013542;28;20045;-66
2022/12/03 05:28:37;;;;;;;9.52;2.67;;;;;;;;;;4996213;28;20034;-66
2022/12/03 05:31:03;;;;;;;7.43;2.72;;;;;;;;;;4990905;28;20045;-66
2022/12/03 05:33:30;;;;;;;8.20;2.97;;;;;;;;;;4995749;28;20125;-66
2022/12/03 05:35:56;;;;;;;9.02;2.88;;;;;;;;;;4991996;28;20558;-65
2022/12/03 05:38:22;;;;;;;8.60;3.15;;;;;;;;;;4997121;28;20025;-66
2022/12/03 05:40:48;;;;;;;10.00;3.33;;;;;;;;;;4999292;28;20097;-66
2022/12/03 05:43:14;;;;;;;11.88;3.10;;;;;;;;;;4999121;28;20036;-66
2022/12/03 05:45:41;;;;;;;11.00;3.45;;;;;;;;;;5000990;28;20778;-66
2022/12/03 05:48:09;;;;;;;11.32;3.78;;;;;;;;;;5000637;28;20033;-66
2022/12/03 05:50:37;;;;;;;9.27;3.50;;;;;;;;;;5001341;28;20030;-65
2022/12/03 05:53:03;;;;;;;8.70;3.38;;;;;;;;;;4999757;28;20056;-65
2022/12/03 05:55:30;;;;;;;9.35;3.28;;;;;;;;;;5002325;28;20374;-65
2022/12/03 05:57:56;;;;;;;9.07;3.17;;;;;;;;;;4999667;28;20124;-66
2022/12/03 06:00:26;;;;;;;7.07;2.63;;;;;;;;;;5001425;28;20036;-66
2022/12/03 06:02:53;;;;;;;7.25;2.53;;;;;;;;;;4998671;28;20780;-65
2022/12/03 06:05:19;;;;;;;;;;;;;;;;;;5000380;28;20028;-66
2022/12/03 06:07:45;;;;;;;11.38;3.63;;;;;;;;;;4999986;28;19917;-66
2022/12/03 06:10:11;;;;;;;;;;;;;;;;;;4999525;28;20048;-66
2022/12/03 06:12:37;;;;;;;10.07;3.53;;;;;;;;;;5000976;28;19971;-66
2022/12/03 06:15:04;;;;;;;11.00;3.50;;;;;;;;;;4995275;28;20109;-66
2022/12/03 06:17:30;;;;;;;10.25;3.60;;;;;;;;;;5002598;28;20057;-66
2022/12/03 06:19:56;;;;;;;;;;;;;;;;;;5000888;28;20549;-65
2022/12/03 06:22:22;;;;;;;11.75;4.85;;;;;;;;;;4999890;28;19917;-64
2022/12/03 06:24:49;;;;;;;9.45;4.10;;;;;;;;;;4997433;28;20334;-65
2022/12/03 06:27:15;;;;;;;11.20;4.30;;;;;;;;;;4995567;28;20049;-64
2022/12/03 06:29:41;;;;;;;9.75;3.50;;;;;;;;;;4998143;28;20042;-64
2022/12/03 06:32:07;;;;;;;10.95;3.60;;;;;;;;;;4998928;28;20791;-64
2022/12/03 06:34:34;;;;;;;11.40;4.30;;;;;;;;;;4997169;28;20327;-64
2022/12/03 06:37:00;;;;;;;12.57;4.68;;;;;;;;;;4995713;28;20079;-64
2022/12/03 06:39:26;;;;;;;14.25;4.43;;;;;;;;;;4999986;28;20569;-64
2022/12/03 06:41:52;;;;;;;11.50;4.20;;;;;;;;;;4994246;28;20029;-64
2022/12/03 06:44:18;;;;;;;11.60;4.10;;;;;;;;;;5000676;28;20056;-65
2022/12/03 06:46:44;;;;;;;13.50;5.28;;;;;;;;;;4999576;28;20030;-64
2022/12/03 06:49:10;;;;;;;14.82;4.40;;;;;;;;;;4998659;28;20042;-64
2022/12/03 06:51:37;;;;;;;10.63;3.95;;;;;;;;;;4997322;28;20350;-64
2022/12/03 06:54:03;;;;;;;;;;;;;;;;;;4992900;28;20499;-67
2022/12/03 06:56:29;;;;;;;11.95;4.20;;;;;;;;;;5001927;28;19912;-63
2022/12/03 06:58:55;;;;;;;11.27;4.00;;;;;;;;;;4994191;28;20152;-64
2022/12/03 07:01:21;;;;;;;14.85;4.72;;;;;;;;;;4998434;28;20714;-64
2022/12/03 07:03:48;;;;;;;11.23;3.83;;;;;;;;;;4995735;28;20126;-64
2022/12/03 07:06:14;;;;;;;13.85;4.38;;;;;;;;;;4995413;28;20030;-67
2022/12/03 07:08:40;;;;;;;;;;;;;;;;;;4998427;28;20041;-64
2022/12/03 07:11:29;;;;;;;13.30;4.38;;;;;;;;;;5010444;28;20263;-65
2022/12/03 07:13:55;;;;;;;11.95;4.32;;;;;;;;;;4993117;28;20042;-65
2022/12/03 07:16:22;;;;;;;10.60;4.43;;;;;;;;;;4998348;28;20041;-64
2022/12/03 07:18:48;;;;;;;12.23;4.40;;;;;;;;;;4992163;28;20094;-65
2022/12/03 07:21:14;;;;;;;14.75;5.18;;;;;;;;;;4999374;28;20103;-64
2022/12/03 07:23:40;;;;;;;11.93;5.57;;;;;;;;;;4998095;28;21092;-64
2022/12/03 07:26:06;;;;;;;12.15;5.30;;;;;;;;;;4995166;28;20139;-64
2022/12/03 07:28:33;;;;;;;14.05;5.78;;;;;;;;;;4999659;28;20049;-64
2022/12/03 07:30:59;;;;;;;14.77;6.10;;;;;;;;;;4993675;28;20033;-64
2022/12/03 07:33:25;;;;;;;13.15;5.75;;;;;;;;;;4997094;28;20761;-64
2022/12/03 07:35:51;;;;;;;16.63;5.72;;;;;;;;;;4995186;28;20029;-64
2022/12/03 07:38:18;;;;;;;15.60;6.15;;;;;;;;;;4997611;28;20037;-65
2022/12/03 07:40:44;;;;;;;12.50;6.10;;;;;;;;;;4994429;28;20064;-64
2022/12/03 07:43:10;;;;;;;13.45;6.50;;;;;;;;;;4993158;28;20041;-65
2022/12/03 07:45:36;;;;;;;12.73;5.90;;;;;;;;;;4998141;28;20028;-64
2022/12/03 07:48:02;;;;;;;12.05;5.95;;;;;;;;;;4994305;28;20029;-64
2022/12/03 07:50:29;;;;;;;14.68;6.65;;;;;;;;;;4992483;28;20029;-64
2022/12/03 07:52:55;;;;;;;12.60;5.82;;;;;;;;;;4992693;28;20045;-64
2022/12/03 07:55:23;;;;;;;;;;;;;;;;;;4994336;28;20030;-64
2022/12/03 07:57:49;;;;;;;11.93;6.07;;;;;;;;;;4991321;28;19917;-64
2022/12/03 08:00:16;;;;;;;14.27;7.82;;;;;;;;;;4992474;28;20063;-65
2022/12/03 08:02:42;;;;;;;15.73;7.40;;;;;;;;;;4994768;28;20036;-66
2022/12/03 08:05:08;;;;;;;19.15;8.50;;;;;;;;;;4992695;28;20036;-65
2022/12/03 08:07:34;;;;;;;14.18;6.57;;;;;;;;;;4995099;28;20496;-66
2022/12/03 08:10:00;;;;;;;;;;;;;;;;;;4991502;28;20037;-64
2022/12/03 08:12:38;;;;;;;14.32;6.10;;;;;;;;;;4995903;28;20690;-66
2022/12/03 08:15:11;;;;;;;13.88;5.68;;;;;;;;;;4986503;28;20509;-65
2022/12/03 08:17:41;;;;;;;11.15;4.88;;;;;;;;;;4993479;28;20052;-65
2022/12/03 08:20:12;;;;;;;13.85;5.35;;;;;;;;;;4987518;28;21138;-66
2022/12/03 08:22:38;;;;;;;13.85;5.20;;;;;;;;;;4993186;28;20033;-65
2022/12/03 08:25:19;;;;;;;11.38;4.70;;;;;;;;;;4989058;28;20497;-66
2022/12/03 08:27:49;;;;;;;12.45;5.43;;;;;;;;;;4995178;28;20053;-65
2022/12/03 08:30:16;;;;;;;11.88;5.28;;;;;;;;;;4994296;28;20684;-64
2022/12/03 08:32:43;;;;;;;10.73;4.47;;;;;;;;;;4995434;28;20070;-66
2022/12/03 08:35:08;;;;;;;;;;;;;;;;;;4991974;28;20386;-64
2022/12/03 08:37:35;;;;;;;13.10;4.93;;;;;;;;;;4996613;28;19917;-67
2022/12/03 08:40:34;;;;;;;11.05;4.82;;;;;;;;;;4972935;28;20305;-66
2022/12/03 08:43:00;;;;;;;13.15;5.45;;;;;;;;;;4994984;28;20092;-64
2022/12/03 08:45:27;;;;;;;;;;;;;;;;;;4998096;28;20499;-67
2022/12/03 08:48:00;;;;;;;12.40;5.10;;;;;;;;;;4995551;28;19917;-65
2022/12/03 08:50:28;;;;;;;12.95;4.60;;;;;;;;;;4996581;28;20494;-65
2022/12/03 08:52:57;;;;;;;15.30;4.47;;;;;;;;;;4992113;28;20296;-65
2022/12/03 08:55:36;;;;;;;13.82;4.47;;;;;;;;;;4998166;28;20112;-64
2022/12/03 08:58:15;;;;;;;9.60;3.72;;;;;;;;;;4994541;28;20238;-65
2022/12/03 09:00:42;;;;;;;10.27;3.78;;;;;;;;;;4996082;28;20379;-65
2022/12/03 09:03:08;;;;;;;;;;;;;;;;;;4993477;28;20033;-65
2022/12/03 09:05:36;;;;;;;12.40;3.67;;;;;;;;;;4995780;28;19939;-64
2022/12/03 09:08:02;;;;;;;12.57;3.78;;;;;;;;;;4994529;28;20541;-65
2022/12/03 09:10:28;;;;;;;;;;;;;;;;;;4996331;28;20574;-65
2022/12/03 09:12:54;;;;;;;11.18;3.50;;;;;;;;;;4991347;28;19979;-65
2022/12/03 09:15:20;;;;;;;;;;;;;;;;;;4996907;28;20731;-65
2022/12/03 09:17:47;;;;;;;9.88;3.45;;;;;;;;;;4992310;28;19912;-65
2022/12/03 09:20:14;;;;;;;9.50;2.92;;;;;;;;;;4992886;28;20466;-64
2022/12/03 09:22:40;;;;;;;7.97;2.95;;;;;;;;;;4991642;28;20022;-65
2022/12/03 09:25:06;;;;;;;;;;;;;;;;;;4997465;28;20561;-64
2022/12/03 09:27:32;;;;;;;11.90;4.10;;;;;;;;;;4990158;28;19917;-65
2022/12/03 09:29:58;;;;;;;10.32;3.42;;;;;;;;;;4986249;28;20113;-65
2022/12/03 09:32:24;;;;;;;9.60;3.50;;;;;;;;;;4991390;28;20041;-66
2022/12/03 09:34:50;;;;;;;13.07;3.88;;;;;;;;;;4982507;28;20065;-65
2022/12/03 09:37:16;;;;;;;9.10;3.58;;;;;;;;;;4986147;28;20479;-65
2022/12/03 09:39:42;;;;;;;10.35;3.03;;;;;;;;;;4981681;28;20046;-65
2022/12/03 09:42:11;;;;;;;10.82;3.55;;;;;;;;;;4979809;28;21186;-65
2022/12/03 09:44:38;;;;;;;8.93;3.10;;;;;;;;;;4985830;28;20034;-66
2022/12/03 09:47:04;;;;;;;11.32;3.22;;;;;;;;;;4979444;28;20132;-64
2022/12/03 09:49:31;;;;;;;11.05;3.28;;;;;;;;;;4978625;28;20248;-65
2022/12/03 09:51:58;;;;;;;10.93;3.50;;;;;;;;;;4981406;28;20653;-65
2022/12/03 09:54:25;;;;;;;11.55;4.00;;;;;;;;;;4981165;28;20032;-65
2022/12/03 09:56:52;;;;;;;11.85;3.33;;;;;;;;;;4980977;28;20033;-65
2022/12/03 09:59:18;;;;;;;9.82;3.67;;;;;;;;;;4988326;28;20033;-67
2022/12/03 10:01:44;;;;;;;13.07;4.03;;;;;;;;;;4996313;28;20022;-68
2022/12/03 10:04:11;;;;;;;11.13;4.30;;;;;;;;;;4990459;28;20618;-69
2022/12/03 10:06:37;;;;;;;12.25;4.78;;;;;;;;;;4996385;28;20041;-69
2022/12/03 10:09:05;;;;;;;12.57;4.07;;;;;;;;;;4992939;28;20243;-67
2022/12/03 10:11:32;;;;;;;11.93;4.30;;;;;;;;;;5010987;28;20496;-67
2022/12/03 10:13:58;;;;;;;12.68;3.80;;;;;;;;;;4991388;28;20061;-69
2022/12/03 10:16:25;;;;;;;13.35;4.03;;;;;;;;;;4996057;28;20041;-67
2022/12/03 10:18:52;;;;;;;10.30;4.03;;;;;;;;;;4993587;28;20041;-67
2022/12/03 10:21:21;;;;;;;13.02;3.88;;;;;;;;;;4998245;28;20035;-68
2022/12/03 10:23:49;;;;;;;10.98;4.57;;;;;;;;;;4995699;28;20033;-68
2022/12/03 10:26:15;;;;;;;12.00;5.05;;;;;;;;;;4998696;28;20522;-67
2022/12/03 10:28:45;;;;;;;10.55;3.63;;;;;;;;;;5001613;28;20048;-68
2022/12/03 10:31:11;;;;;;;11.27;3.88;;;;;;;;;;4995440;28;20029;-68
2022/12/03 10:33:46;;;;;;;7.93;3.05;;;;;;;;;;4993967;28;20025;-68
2022/12/03 10:36:26;;;;;;;9.30;3.23;;;;;;;;;;4997525;28;20052;-68
2022/12/03 10:39:09;;;;;;;10.80;3.50;;;;;;;;;;4996233;28;20029;-68
2022/12/03 10:41:36;;;;;;;7.60;2.78;;;;;;;;;;5013303;28;20800;-68
2022/12/03 10:44:17;;;;;;;11.52;3.05;;;;;;;;;;4998171;28;20396;-68
2022/12/03 10:46:43;;;;;;;6.65;2.45;;;;;;;;;;4996769;28;20041;-68
2022/12/03 10:49:11;;;;;;;9.18;3.08;;;;;;;;;;4998160;28;20025;-69
2022/12/03 10:51:38;;;;;;;7.43;2.90;;;;;;;;;;4999452;28;20044;-68
2022/12/03 10:54:08;;;;;;;8.63;2.78;;;;;;;;;;4991640;28;20034;-68
2022/12/03 10:56:34;;;;;;;7.38;2.35;;;;;;;;;;4999190;28;20030;-69
2022/12/03 10:59:00;;;;;;;6.85;2.40;;;;;;;;;;4996393;28;20034;-69
2022/12/03 11:01:26;;;;;;;12.00;3.22;;;;;;;;;;4997689;28;20044;-68
2022/12/03 11:03:53;;;;;;;11.38;4.35;;;;;;;;;;4996554;28;20155;-67
2022/12/03 11:06:21;;;;;;;11.18;4.05;;;;;;;;;;4996208;28;20128;-70
2022/12/03 11:08:52;;;;;;;10.98;4.78;;;;;;;;;;4996746;28;20043;-69
2022/12/03 11:11:18;;;;;;;10.30;4.75;;;;;;;;;;4998383;28;20490;-67
2022/12/03 11:13:46;;;;;;;9.52;3.70;;;;;;;;;;4998368;28;21666;-68
2022/12/03 11:16:14;;;;;;;8.07;3.28;;;;;;;;;;4996258;28;20287;-68
2022/12/03 11:18:40;;;;;;;10.95;3.22;;;;;;;;;;4998576;28;20124;-67
2022/12/03 11:21:10;;;;;;;10.68;2.88;;;;;;;;;;4992561;28;20431;-67
2022/12/03 11:23:46;;;;;;;8.95;3.38;;;;;;;;;;4997490;28;20379;-67
2022/12/03 11:26:13;;;;;;;10.15;3.30;;;;;;;;;;4999202;28;20063;-68
2022/12/03 11:28:45;;;;;;;10.18;3.58;;;;;;;;;;5000347;28;20072;-67
2022/12/03 11:31:30;;;;;;;9.75;3.60;;;;;;;;;;5007620;28;20029;-67
2022/12/03 11:34:15;;;;;;;8.75;3.67;;;;;;;;;;4992504;28;20445;-67
2022/12/03 11:36:59;;;;;;;9.45;4.28;;;;;;;;;;4999660;28;20040;-68
2022/12/03 11:39:47;;;;;;;11.30;3.97;;;;;;;;;;5000519;28;20033;-68
2022/12/03 11:42:25;;;;;;;9.73;3.72;;;;;;;;;;4997556;28;20571;-67
2022/12/03 11:45:09;;;;;;;9.88;3.17;;;;;;;;;;4998601;28;20033;-68
2022/12/03 11:47:40;;;;;;;10.88;4.68;;;;;;;;;;4992527;28;20021;-67
2022/12/03 11:50:15;;;;;;;11.07;4.45;;;;;;;;;;4998265;28;20033;-68
2022/12/03 11:52:42;;;;;;;9.43;3.37;;;;;;;;;;4995958;28;20053;-68
2022/12/03 11:55:31;;;;;;;9.57;3.70;;;;;;;;;;4998052;28;20274;-68
2022/12/03 11:58:02;;;;;;;9.80;3.08;;;;;;;;;;4995061;28;20021;-68
2022/12/03 12:00:29;;;;;;;7.95;2.80;;;;;;;;;;4998690;28;20064;-69
2022/12/03 12:02:56;;;;;;;8.15;2.90;;;;;;;;;;4997797;28;20056;-69
2022/12/03 12:05:25;;;;;;;11.68;3.83;;;;;;;;;;5000063;28;20033;-69
2022/12/03 12:07:51;;;;;;;10.57;3.92;;;;;;;;;;4996180;28;20038;-69
2022/12/03 12:10:36;;;;;;;10.60;3.47;;;;;;;;;;5000335;28;20025;-69
2022/12/03 12:13:02;;;;;;;9.52;2.90;;;;;;;;;;4996270;28;20048;-69
2022/12/03 12:15:35;;;;;;;11.07;3.10;;;;;;;;;;4994306;28;20067;-68
2022/12/03 12:18:20;;;;;;;10.05;2.60;;;;;;;;;;4997347;28;20045;-69
2022/12/03 12:20:46;;;;;;;9.10;2.80;;;;;;;;;;5000885;28;20346;-70
2022/12/03 12:23:27;;;;;;;8.02;2.80;;;;;;;;;;4997410;28;20064;-70
2022/12/03 12:26:05;;;;;;;9.00;2.55;;;;;;;;;;4997128;28;20560;-69
2022/12/03 12:28:31;;;;;;;8.82;2.90;;;;;;;;;;4996550;28;20030;-68
2022/12/03 12:30:57;;;;;;;8.27;2.70;;;;;;;;;;4990607;28;20574;-67
2022/12/03 12:33:24;;;;;;;9.15;2.65;;;;;;;;;;5000782;28;20033;-68
2022/12/03 12:35:51;;;;;;;9.18;3.72;;;;;;;;;;4992149;28;20037;-68
2022/12/03 12:38:19;;;;;;;8.55;3.05;;;;;;;;;;4997787;28;20029;-68
2022/12/03 12:40:48;;;;;;;8.48;3.03;;;;;;;;;;5000212;28;20053;-68
2022/12/03 12:43:20;;;;;;;8.63;3.05;;;;;;;;;;4995402;28;20026;-68
2022/12/03 12:45:47;;;;;;;8.40;2.90;;;;;;;;;;4998385;28;20059;-68
2022/12/03 12:48:34;;;;;;;6.55;2.30;;;;;;;;;;4996888;28;20032;-68
2022/12/03 12:51:08;;;;;;;7.03;2.45;;;;;;;;;;4995503;28;20245;-68
2022/12/03 12:53:35;;;;;;;8.30;2.80;;;;;;;;;;4998536;28;20034;-68
2022/12/03 12:56:01;;;;;;;8.73;2.95;;;;;;;;;;4998483;28;20032;-68
2022/12/03 12:58:32;;;;;;;17.05;8.05;;;;;;;;;;4990861;28;20025;-69
2022/12/03 13:01:00;;;;;;;16.48;8.10;;;;;;;;;;4996843;28;20400;-68
2022/12/03 13:03:27;;;;;;;12.95;5.85;;;;;;;;;;4998481;28;20061;-68
2022/12/03 13:05:56;;;;;;;10.52;4.75;;;;;;;;;;4995502;28;20072;-68
2022/12/03 13:08:37;;;;;;;10.88;4.47;;;;;;;;;;4999854;28;20207;-69
2022/12/03 13:11:03;;;;;;;11.10;4.68;;;;;;;;;;5006757;28;20229;-68
2022/12/03 13:13:31;;;;;;;12.80;4.53;;;;;;;;;;5000540;28;20034;-68
2022/12/03 13:16:00;;;;;;;11.43;5.15;;;;;;;;;;4994699;28;20022;-68
2022/12/03 13:18:26;;;;;;;11.70;4.60;;;;;;;;;;4998485;28;20037;-68
2022/12/03 13:20:53;;;;;;;10.88;4.90;;;;;;;;;;4998830;28;20634;-68
2022/12/03 13:23:26;;;;;;;11.38;4.75;;;;;;;;;;5010260;28;20029;-68
2022/12/03 13:25:56;;;;;;;9.80;4.35;;;;;;;;;;4997388;28;20102;-69
2022/12/03 13:28:22;;;;;;;10.02;4.30;;;;;;;;;;4997261;28;20033;-69
2022/12/03 13:30:48;;;;;;;10.85;4.28;;;;;;;;;;4993814;28;20111;-70
2022/12/03 13:33:25;;;;;;;9.15;3.17;;;;;;;;;;4998508;28;20040;-67
2022/12/03 13:35:57;;;;;;;8.80;3.03;;;;;;;;;;4993803;28;20022;-66
2022/12/03 13:38:24;;;;;;;8.65;3.40;;;;;;;;;;5004006;28;20029;-65
2022/12/03 13:40:58;;;;;;;9.55;2.65;;;;;;;;;;4994077;28;20216;-66
2022/12/03 13:43:28;;;;;;;9.18;3.42;;;;;;;;;;4998209;28;20361;-67
2022/12/03 13:45:54;;;;;;;8.73;3.40;;;;;;;;;;4993140;28;20029;-66
2022/12/03 13:48:24;;;;;;;10.88;3.47;;;;;;;;;;4997135;28;20440;-66
2022/12/03 13:50:51;;;;;;;8.35;2.88;;;;;;;;;;5000470;28;20452;-67
2022/12/03 13:53:23;;;;;;;8.50;2.47;;;;;;;;;;4996966;28;20072;-67
2022/12/03 13:56:13;;;;;;;6.32;2.38;;;;;;;;;;4989195;28;20137;-66
2022/12/03 13:58:39;;;;;;;10.77;2.50;;;;;;;;;;4992569;28;20049;-66
2022/12/03 14:01:05;;;;;;;6.55;2.00;;;;;;;;;;5003319;28;20505;-66
2022/12/03 14:03:32;;;;;;;7.55;2.33;;;;;;;;;;4994190;28;20083;-66
2022/12/03 14:05:58;;;;;;;8.27;2.33;;;;;;;;;;5002647;28;20021;-69
2022/12/03 14:08:24;;;;;;;7.18;2.40;;;;;;;;;;5002832;28;20345;-68
2022/12/03 14:10:50;;;;;;;7.57;2.40;;;;;;;;;;4997424;28;20866;-69
2022/12/03 14:13:16;;;;;;;6.78;2.13;;;;;;;;;;5000043;28;20033;-69
2022/12/03 14:15:42;;;;;;;7.72;2.40;;;;;;;;;;4997748;28;20049;-70
2022/12/03 14:18:09;;;;;;;7.60;2.47;;;;;;;;;;4997107;28;20293;-69
2022/12/03 14:20:38;;;;;;;6.57;2.05;;;;;;;;;;5007430;28;20136;-69
2022/12/03 14:23:05;;;;;;;7.18;2.40;;;;;;;;;;5014855;28;20136;-69
2022/12/03 14:25:31;;;;;;;8.07;2.63;;;;;;;;;;5010043;28;20049;-70
2022/12/03 14:28:00;;;;;;;8.30;2.90;;;;;;;;;;5020002;28;20049;-70
2022/12/03 14:30:27;;;;;;;10.55;3.40;;;;;;;;;;5020395;28;20625;-70
2022/12/03 14:32:53;;;;;;;10.05;3.25;;;;;;;;;;5000536;28;20257;-68
2022/12/03 14:35:19;;;;;;;9.45;2.97;;;;;;;;;;4996544;28;20447;-68
2022/12/03 14:37:45;;;;;;;7.45;2.70;;;;;;;;;;4996244;28;20413;-68
2022/12/03 14:40:11;;;;;;;8.80;2.97;;;;;;;;;;4993803;28;20582;-68
2022/12/03 14:42:37;;;;;;;8.52;3.13;;;;;;;;;;4995883;28;20138;-68
2022/12/03 14:45:04;;;;;;;8.50;3.20;;;;;;;;;;4996202;28;20152;-69
2022/12/03 14:47:30;;;;;;;7.65;2.88;;;;;;;;;;4992020;28;20060;-70
2022/12/03 14:49:56;;;;;;;9.23;3.00;;;;;;;;;;4993833;28;20030;-67
2022/12/03 14:52:23;;;;;;;9.88;4.90;;;;;;;;;;4997872;28;20021;-70
2022/12/03 14:54:49;;;;;;;8.77;3.67;;;;;;;;;;4996549;28;21076;-68
2022/12/03 14:57:15;;;;;;;9.07;4.00;;;;;;;;;;4999888;28;20038;-69
2022/12/03 14:59:42;;;;;;;8.13;3.75;;;;;;;;;;4997301;28;20476;-69
2022/12/03 15:02:09;;;;;;;8.55;2.80;;;;;;;;;;4995073;28;20881;-69
2022/12/03 15:04:35;;;;;;;10.07;5.15;;;;;;;;;;5000042;28;20025;-69